sensor_id;sensor_type;location;lat;lon;timestamp;temperature;humidity
34815;DHT22;21030;53.912;15.214;2023-01-25T00:00:46;24.30;21.80
34815;DHT22;21030;53.912;15.214;2023-01-25T00:03:13;24.70;21.40
34815;DHT22;21030;53.912;15.214;2023-01-25T00:05:41;24.50;21.20
34815;DHT22;21030;53.912;15.214;2023-01-25T00:08:08;25.70;20.90
34815;DHT22;21030;53.912;15.214;2023-01-25T00:10:35;25.90;20.30
34815;DHT22;21030;53.912;15.214;2023-01-25T00:13:02;25.90;20.30
34815;DHT22;21030;53.912;15.214;2023-01-25T00:15:29;25.60;20.70
34815;DHT22;21030;53.912;15.214;2023-01-25T00:17:56;24.90;21.00
34815;DHT22;21030;53.912;15.214;2023-01-25T00:20:24;25.00;21.00
34815;DHT22;21030;53.912;15.214;2023-01-25T00:22:51;25.80;20.80
34815;DHT22;21030;53.912;15.214;2023-01-25T00:25:18;26.50;20.60
34815;DHT22;21030;53.912;15.214;2023-01-25T00:27:45;27.10;20.00
34815;DHT22;21030;53.912;15.214;2023-01-25T00:30:12;27.70;19.40
34815;DHT22;21030;53.912;15.214;2023-01-25T00:32:56;27.80;19.40
34815;DHT22;21030;53.912;15.214;2023-01-25T00:35:29;28.40;19.20
34815;DHT22;21030;53.912;15.214;2023-01-25T00:38:01;28.40;19.00
34815;DHT22;21030;53.912;15.214;2023-01-25T00:40:29;28.40;19.00
34815;DHT22;21030;53.912;15.214;2023-01-25T00:42:57;27.70;19.10
34815;DHT22;21030;53.912;15.214;2023-01-25T00:45:27;27.10;19.40
34815;DHT22;21030;53.912;15.214;2023-01-25T00:47:55;27.00;19.60
34815;DHT22;21030;53.912;15.214;2023-01-25T00:50:22;25.90;20.10
34815;DHT22;21030;53.912;15.214;2023-01-25T00:52:49;26.30;20.30
34815;DHT22;21030;53.912;15.214;2023-01-25T00:55:16;26.80;20.10
34815;DHT22;21030;53.912;15.214;2023-01-25T00:57:43;27.10;19.60
34815;DHT22;21030;53.912;15.214;2023-01-25T01:00:11;27.30;19.60
34815;DHT22;21030;53.912;15.214;2023-01-25T01:02:38;27.20;19.40
34815;DHT22;21030;53.912;15.214;2023-01-25T01:05:05;27.20;19.70
34815;DHT22;21030;53.912;15.214;2023-01-25T01:07:33;27.10;19.60
34815;DHT22;21030;53.912;15.214;2023-01-25T01:10:00;26.50;19.80
34815;DHT22;21030;53.912;15.214;2023-01-25T01:12:28;27.00;19.90
34815;DHT22;21030;53.912;15.214;2023-01-25T01:14:55;27.30;19.70
34815;DHT22;21030;53.912;15.214;2023-01-25T01:17:22;27.70;19.60
34815;DHT22;21030;53.912;15.214;2023-01-25T01:19:50;27.90;19.10
34815;DHT22;21030;53.912;15.214;2023-01-25T01:22:17;26.90;19.60
34815;DHT22;21030;53.912;15.214;2023-01-25T01:24:46;26.80;19.90
34815;DHT22;21030;53.912;15.214;2023-01-25T01:27:13;26.20;20.00
34815;DHT22;21030;53.912;15.214;2023-01-25T01:29:40;25.90;20.30
34815;DHT22;21030;53.912;15.214;2023-01-25T01:32:07;25.30;20.60
34815;DHT22;21030;53.912;15.214;2023-01-25T01:34:35;24.60;21.20
34815;DHT22;21030;53.912;15.214;2023-01-25T01:37:02;23.40;22.00
34815;DHT22;21030;53.912;15.214;2023-01-25T01:39:29;23.50;22.50
34815;DHT22;21030;53.912;15.214;2023-01-25T01:41:56;24.60;22.00
34815;DHT22;21030;53.912;15.214;2023-01-25T01:44:43;25.50;21.00
34815;DHT22;21030;53.912;15.214;2023-01-25T01:47:22;26.40;20.50
34815;DHT22;21030;53.912;15.214;2023-01-25T01:50:19;26.80;20.20
34815;DHT22;21030;53.912;15.214;2023-01-25T01:52:49;27.20;19.70
34815;DHT22;21030;53.912;15.214;2023-01-25T01:55:18;26.70;19.90
34815;DHT22;21030;53.912;15.214;2023-01-25T01:57:55;26.80;20.00
34815;DHT22;21030;53.912;15.214;2023-01-25T02:00:30;26.90;19.90
34815;DHT22;21030;53.912;15.214;2023-01-25T02:02:58;27.40;19.80
34815;DHT22;21030;53.912;15.214;2023-01-25T02:05:39;27.00;19.70
34815;DHT22;21030;53.912;15.214;2023-01-25T02:08:10;27.20;20.30
34815;DHT22;21030;53.912;15.214;2023-01-25T02:10:40;26.60;19.90
34815;DHT22;21030;53.912;15.214;2023-01-25T02:13:08;25.80;20.60
34815;DHT22;21030;53.912;15.214;2023-01-25T02:15:49;24.80;21.00
34815;DHT22;21030;53.912;15.214;2023-01-25T02:18:18;24.00;21.70
34815;DHT22;21030;53.912;15.214;2023-01-25T02:20:50;22.70;22.70
34815;DHT22;21030;53.912;15.214;2023-01-25T02:23:25;22.60;23.70
34815;DHT22;21030;53.912;15.214;2023-01-25T02:25:55;23.80;22.90
34815;DHT22;21030;53.912;15.214;2023-01-25T02:28:29;24.50;22.00
34815;DHT22;21030;53.912;15.214;2023-01-25T02:30:58;25.50;21.30
34815;DHT22;21030;53.912;15.214;2023-01-25T02:33:26;25.40;20.90
34815;DHT22;21030;53.912;15.214;2023-01-25T02:38:35;25.70;20.70
34815;DHT22;21030;53.912;15.214;2023-01-25T02:41:10;24.40;21.50
34815;DHT22;21030;53.912;15.214;2023-01-25T02:43:41;24.80;21.40
34815;DHT22;21030;53.912;15.214;2023-01-25T02:46:32;24.10;21.60
34815;DHT22;21030;53.912;15.214;2023-01-25T02:49:00;23.00;22.90
34815;DHT22;21030;53.912;15.214;2023-01-25T02:51:29;22.70;23.40
34815;DHT22;21030;53.912;15.214;2023-01-25T02:53:58;23.50;22.80
34815;DHT22;21030;53.912;15.214;2023-01-25T02:56:25;23.90;22.50
34815;DHT22;21030;53.912;15.214;2023-01-25T02:58:53;24.50;21.90
34815;DHT22;21030;53.912;15.214;2023-01-25T03:01:20;24.60;21.80
34815;DHT22;21030;53.912;15.214;2023-01-25T03:03:47;25.20;21.40
34815;DHT22;21030;53.912;15.214;2023-01-25T03:06:15;24.80;21.50
34815;DHT22;21030;53.912;15.214;2023-01-25T03:08:42;24.70;21.70
34815;DHT22;21030;53.912;15.214;2023-01-25T03:11:09;23.90;22.00
34815;DHT22;21030;53.912;15.214;2023-01-25T03:13:37;22.60;22.80
34815;DHT22;21030;53.912;15.214;2023-01-25T03:16:06;22.80;23.50
34815;DHT22;21030;53.912;15.214;2023-01-25T03:18:34;21.50;24.00
34815;DHT22;21030;53.912;15.214;2023-01-25T03:21:14;22.50;23.90
34815;DHT22;21030;53.912;15.214;2023-01-25T03:23:41;24.60;22.30
34815;DHT22;21030;53.912;15.214;2023-01-25T03:26:14;24.70;21.60
34815;DHT22;21030;53.912;15.214;2023-01-25T03:28:42;24.30;22.00
34815;DHT22;21030;53.912;15.214;2023-01-25T03:31:11;24.80;21.80
34815;DHT22;21030;53.912;15.214;2023-01-25T03:33:39;25.40;21.40
34815;DHT22;21030;53.912;15.214;2023-01-25T03:36:07;25.80;20.90
34815;DHT22;21030;53.912;15.214;2023-01-25T03:38:34;25.10;21.70
34815;DHT22;21030;53.912;15.214;2023-01-25T03:41:02;24.60;21.60
34815;DHT22;21030;53.912;15.214;2023-01-25T03:43:30;25.50;21.10
34815;DHT22;21030;53.912;15.214;2023-01-25T03:45:58;25.70;20.80
34815;DHT22;21030;53.912;15.214;2023-01-25T03:48:27;25.70;20.90
34815;DHT22;21030;53.912;15.214;2023-01-25T03:50:56;25.60;20.70
34815;DHT22;21030;53.912;15.214;2023-01-25T03:53:26;26.60;20.40
34815;DHT22;21030;53.912;15.214;2023-01-25T03:55:59;26.90;20.20
34815;DHT22;21030;53.912;15.214;2023-01-25T03:58:27;26.50;20.40
34815;DHT22;21030;53.912;15.214;2023-01-25T04:00:57;26.70;20.20
34815;DHT22;21030;53.912;15.214;2023-01-25T04:03:25;26.10;20.20
34815;DHT22;21030;53.912;15.214;2023-01-25T04:05:54;26.50;20.20
34815;DHT22;21030;53.912;15.214;2023-01-25T04:08:24;25.40;20.60
34815;DHT22;21030;53.912;15.214;2023-01-25T04:10:52;25.30;20.90
34815;DHT22;21030;53.912;15.214;2023-01-25T04:13:20;25.30;20.90
34815;DHT22;21030;53.912;15.214;2023-01-25T04:15:48;25.20;21.00
34815;DHT22;21030;53.912;15.214;2023-01-25T04:18:16;24.50;21.80
34815;DHT22;21030;53.912;15.214;2023-01-25T04:20:43;25.00;21.70
34815;DHT22;21030;53.912;15.214;2023-01-25T04:23:11;24.40;21.70
34815;DHT22;21030;53.912;15.214;2023-01-25T04:25:38;25.10;21.50
34815;DHT22;21030;53.912;15.214;2023-01-25T04:28:05;24.60;21.40
34815;DHT22;21030;53.912;15.214;2023-01-25T04:30:32;25.00;21.60
34815;DHT22;21030;53.912;15.214;2023-01-25T04:33:04;26.00;21.10
34815;DHT22;21030;53.912;15.214;2023-01-25T04:35:31;26.80;20.30
34815;DHT22;21030;53.912;15.214;2023-01-25T04:37:58;26.70;20.00
34815;DHT22;21030;53.912;15.214;2023-01-25T04:40:26;26.10;20.20
34815;DHT22;21030;53.912;15.214;2023-01-25T04:42:53;25.70;20.90
34815;DHT22;21030;53.912;15.214;2023-01-25T04:45:21;25.00;21.20
34815;DHT22;21030;53.912;15.214;2023-01-25T04:47:55;24.00;21.70
34815;DHT22;21030;53.912;15.214;2023-01-25T04:50:23;24.50;22.00
34815;DHT22;21030;53.912;15.214;2023-01-25T04:52:51;25.10;21.70
34815;DHT22;21030;53.912;15.214;2023-01-25T04:55:18;25.40;21.10
34815;DHT22;21030;53.912;15.214;2023-01-25T04:57:48;24.90;21.50
34815;DHT22;21030;53.912;15.214;2023-01-25T05:00:16;25.70;21.20
34815;DHT22;21030;53.912;15.214;2023-01-25T05:02:44;24.90;21.40
34815;DHT22;21030;53.912;15.214;2023-01-25T05:05:12;23.10;22.60
34815;DHT22;21030;53.912;15.214;2023-01-25T05:07:39;23.50;23.10
34815;DHT22;21030;53.912;15.214;2023-01-25T05:10:07;23.10;23.20
34815;DHT22;21030;53.912;15.214;2023-01-25T05:12:34;24.60;22.50
34815;DHT22;21030;53.912;15.214;2023-01-25T05:15:02;25.80;21.30
34815;DHT22;21030;53.912;15.214;2023-01-25T05:17:29;26.20;20.60
34815;DHT22;21030;53.912;15.214;2023-01-25T05:19:56;25.50;21.00
34815;DHT22;21030;53.912;15.214;2023-01-25T05:22:23;25.40;21.30
34815;DHT22;21030;53.912;15.214;2023-01-25T05:24:50;25.50;21.20
34815;DHT22;21030;53.912;15.214;2023-01-25T05:27:19;25.90;21.10
34815;DHT22;21030;53.912;15.214;2023-01-25T05:29:46;26.60;20.70
34815;DHT22;21030;53.912;15.214;2023-01-25T05:32:18;27.40;20.30
34815;DHT22;21030;53.912;15.214;2023-01-25T05:34:46;27.10;19.80
34815;DHT22;21030;53.912;15.214;2023-01-25T05:37:16;27.40;20.20
34815;DHT22;21030;53.912;15.214;2023-01-25T05:39:43;27.30;20.10
34815;DHT22;21030;53.912;15.214;2023-01-25T05:42:13;26.90;19.90
34815;DHT22;21030;53.912;15.214;2023-01-25T05:44:40;26.90;20.30
34815;DHT22;21030;53.912;15.214;2023-01-25T05:47:15;27.10;20.40
34815;DHT22;21030;53.912;15.214;2023-01-25T05:49:43;27.10;20.10
34815;DHT22;21030;53.912;15.214;2023-01-25T05:52:13;27.00;20.40
34815;DHT22;21030;53.912;15.214;2023-01-25T05:54:40;26.10;20.30
34815;DHT22;21030;53.912;15.214;2023-01-25T05:57:07;26.60;20.80
34815;DHT22;21030;53.912;15.214;2023-01-25T05:59:35;26.40;20.40
34815;DHT22;21030;53.912;15.214;2023-01-25T06:02:02;26.00;20.80
34815;DHT22;21030;53.912;15.214;2023-01-25T06:04:29;26.00;20.40
34815;DHT22;21030;53.912;15.214;2023-01-25T06:06:56;25.00;21.10
34815;DHT22;21030;53.912;15.214;2023-01-25T06:09:25;24.90;21.40
34815;DHT22;21030;53.912;15.214;2023-01-25T06:11:52;24.90;21.80
34815;DHT22;21030;53.912;15.214;2023-01-25T06:14:20;24.90;21.50
34815;DHT22;21030;53.912;15.214;2023-01-25T06:16:47;25.20;21.60
34815;DHT22;21030;53.912;15.214;2023-01-25T06:19:14;25.90;21.10
34815;DHT22;21030;53.912;15.214;2023-01-25T06:21:41;25.20;21.20
34815;DHT22;21030;53.912;15.214;2023-01-25T06:24:08;24.10;22.00
34815;DHT22;21030;53.912;15.214;2023-01-25T06:26:35;25.00;22.20
34815;DHT22;21030;53.912;15.214;2023-01-25T06:29:05;25.30;21.40
34815;DHT22;21030;53.912;15.214;2023-01-25T06:31:33;25.60;21.40
34815;DHT22;21030;53.912;15.214;2023-01-25T06:34:01;26.20;21.10
34815;DHT22;21030;53.912;15.214;2023-01-25T06:36:30;27.40;20.60
34815;DHT22;21030;53.912;15.214;2023-01-25T06:38:59;27.20;20.20
34815;DHT22;21030;53.912;15.214;2023-01-25T06:41:26;26.40;20.40
34815;DHT22;21030;53.912;15.214;2023-01-25T06:43:53;26.30;20.60
34815;DHT22;21030;53.912;15.214;2023-01-25T06:46:21;25.80;21.00
34815;DHT22;21030;53.912;15.214;2023-01-25T06:48:49;25.40;21.00
34815;DHT22;21030;53.912;15.214;2023-01-25T06:51:16;25.10;21.40
34815;DHT22;21030;53.912;15.214;2023-01-25T06:53:45;24.60;22.00
34815;DHT22;21030;53.912;15.214;2023-01-25T06:56:15;24.30;22.00
34815;DHT22;21030;53.912;15.214;2023-01-25T06:58:47;22.70;23.20
34815;DHT22;21030;53.912;15.214;2023-01-25T07:01:18;22.50;24.10
34815;DHT22;21030;53.912;15.214;2023-01-25T07:03:51;22.00;24.10
34815;DHT22;21030;53.912;15.214;2023-01-25T07:06:19;21.20;24.80
34815;DHT22;21030;53.912;15.214;2023-01-25T07:08:46;21.50;25.10
34815;DHT22;21030;53.912;15.214;2023-01-25T07:11:14;20.80;25.30
34815;DHT22;21030;53.912;15.214;2023-01-25T07:13:43;21.40;25.50
34815;DHT22;21030;53.912;15.214;2023-01-25T07:16:18;22.00;24.80
34815;DHT22;21030;53.912;15.214;2023-01-25T07:18:46;22.10;24.80
34815;DHT22;21030;53.912;15.214;2023-01-25T07:21:21;22.50;25.00
34815;DHT22;21030;53.912;15.214;2023-01-25T07:23:49;23.30;24.00
34815;DHT22;21030;53.912;15.214;2023-01-25T07:26:22;23.40;23.70
34815;DHT22;21030;53.912;15.214;2023-01-25T07:28:50;23.80;23.00
34815;DHT22;21030;53.912;15.214;2023-01-25T07:31:19;24.20;22.70
34815;DHT22;21030;53.912;15.214;2023-01-25T07:33:50;25.30;22.20
34815;DHT22;21030;53.912;15.214;2023-01-25T07:36:18;25.20;21.70
34815;DHT22;21030;53.912;15.214;2023-01-25T07:38:46;23.80;22.20
34815;DHT22;21030;53.912;15.214;2023-01-25T07:41:13;21.80;24.30
34815;DHT22;21030;53.912;15.214;2023-01-25T07:43:42;22.80;24.20
34815;DHT22;21030;53.912;15.214;2023-01-25T07:46:11;23.40;23.60
34815;DHT22;21030;53.912;15.214;2023-01-25T07:48:40;23.40;23.10
34815;DHT22;21030;53.912;15.214;2023-01-25T07:51:11;22.60;23.60
34815;DHT22;21030;53.912;15.214;2023-01-25T07:53:40;21.60;24.80
34815;DHT22;21030;53.912;15.214;2023-01-25T07:56:10;21.80;25.10
34815;DHT22;21030;53.912;15.214;2023-01-25T07:58:38;21.50;25.10
34815;DHT22;21030;53.912;15.214;2023-01-25T08:01:10;22.30;24.70
34815;DHT22;21030;53.912;15.214;2023-01-25T08:03:37;22.80;24.20
34815;DHT22;21030;53.912;15.214;2023-01-25T08:06:05;23.70;23.20
34815;DHT22;21030;53.912;15.214;2023-01-25T08:08:34;23.50;23.30
34815;DHT22;21030;53.912;15.214;2023-01-25T08:11:23;22.10;24.00
34815;DHT22;21030;53.912;15.214;2023-01-25T08:13:51;22.30;24.60
34815;DHT22;21030;53.912;15.214;2023-01-25T08:16:25;21.30;25.00
34815;DHT22;21030;53.912;15.214;2023-01-25T08:18:57;20.80;25.50
34815;DHT22;21030;53.912;15.214;2023-01-25T08:21:26;19.90;26.70
34815;DHT22;21030;53.912;15.214;2023-01-25T08:23:57;20.40;26.90
34815;DHT22;21030;53.912;15.214;2023-01-25T08:26:25;21.70;25.70
34815;DHT22;21030;53.912;15.214;2023-01-25T08:28:54;23.10;24.30
34815;DHT22;21030;53.912;15.214;2023-01-25T08:31:24;24.20;23.10
34815;DHT22;21030;53.912;15.214;2023-01-25T08:33:52;24.90;22.20
34815;DHT22;21030;53.912;15.214;2023-01-25T08:36:20;24.90;22.10
34815;DHT22;21030;53.912;15.214;2023-01-25T08:38:54;23.30;23.00
34815;DHT22;21030;53.912;15.214;2023-01-25T08:41:22;23.30;23.60
34815;DHT22;21030;53.912;15.214;2023-01-25T08:43:51;23.50;23.10
34815;DHT22;21030;53.912;15.214;2023-01-25T08:46:20;23.20;23.60
34815;DHT22;21030;53.912;15.214;2023-01-25T08:48:47;22.80;23.90
34815;DHT22;21030;53.912;15.214;2023-01-25T08:51:17;22.60;24.60
34815;DHT22;21030;53.912;15.214;2023-01-25T08:53:44;22.10;24.70
34815;DHT22;21030;53.912;15.214;2023-01-25T08:56:13;22.90;24.50
34815;DHT22;21030;53.912;15.214;2023-01-25T08:58:45;23.30;23.90
34815;DHT22;21030;53.912;15.214;2023-01-25T09:01:14;23.80;23.60
34815;DHT22;21030;53.912;15.214;2023-01-25T09:03:47;25.20;22.20
34815;DHT22;21030;53.912;15.214;2023-01-25T09:06:15;25.00;21.90
34815;DHT22;21030;53.912;15.214;2023-01-25T09:08:43;24.70;22.20
34815;DHT22;21030;53.912;15.214;2023-01-25T09:11:12;23.90;22.70
34815;DHT22;21030;53.912;15.214;2023-01-25T09:13:40;22.70;23.70
34815;DHT22;21030;53.912;15.214;2023-01-25T09:16:15;21.50;24.70
34815;DHT22;21030;53.912;15.214;2023-01-25T09:18:44;21.30;25.40
34815;DHT22;21030;53.912;15.214;2023-01-25T09:21:13;23.00;24.50
34815;DHT22;21030;53.912;15.214;2023-01-25T09:23:41;24.20;23.00
34815;DHT22;21030;53.912;15.214;2023-01-25T09:26:33;24.00;22.80
34815;DHT22;21030;53.912;15.214;2023-01-25T09:29:00;23.20;23.50
34815;DHT22;21030;53.912;15.214;2023-01-25T09:31:27;23.40;23.60
34815;DHT22;21030;53.912;15.214;2023-01-25T09:33:56;21.90;24.00
34815;DHT22;21030;53.912;15.214;2023-01-25T09:36:24;20.90;25.40
34815;DHT22;21030;53.912;15.214;2023-01-25T09:38:52;21.60;25.80
34815;DHT22;21030;53.912;15.214;2023-01-25T09:46:44;25.40;22.00
34815;DHT22;21030;53.912;15.214;2023-01-25T09:49:44;25.20;22.00
34815;DHT22;21030;53.912;15.214;2023-01-25T09:54:56;24.80;22.20
34815;DHT22;21030;53.912;15.214;2023-01-25T09:57:30;24.80;22.00
34815;DHT22;21030;53.912;15.214;2023-01-25T10:00:02;22.90;22.90
34815;DHT22;21030;53.912;15.214;2023-01-25T10:03:02;22.90;24.00
34815;DHT22;21030;53.912;15.214;2023-01-25T10:05:39;22.70;23.80
34815;DHT22;21030;53.912;15.214;2023-01-25T10:10:49;23.00;24.20
34815;DHT22;21030;53.912;15.214;2023-01-25T10:13:22;23.60;23.60
34815;DHT22;21030;53.912;15.214;2023-01-25T10:15:59;24.60;22.80
34815;DHT22;21030;53.912;15.214;2023-01-25T10:21:17;24.00;23.40
34815;DHT22;21030;53.912;15.214;2023-01-25T10:24:03;24.00;23.10
34815;DHT22;21030;53.912;15.214;2023-01-25T10:26:35;23.80;22.90
34815;DHT22;21030;53.912;15.214;2023-01-25T10:29:32;24.90;22.60
34815;DHT22;21030;53.912;15.214;2023-01-25T10:32:28;25.90;21.50
34815;DHT22;21030;53.912;15.214;2023-01-25T10:35:16;25.70;21.60
34815;DHT22;21030;53.912;15.214;2023-01-25T10:38:04;24.60;22.30
34815;DHT22;21030;53.912;15.214;2023-01-25T10:40:42;25.20;21.90
34815;DHT22;21030;53.912;15.214;2023-01-25T10:43:20;24.70;22.00
34815;DHT22;21030;53.912;15.214;2023-01-25T10:45:48;22.70;23.30
34815;DHT22;21030;53.912;15.214;2023-01-25T10:48:36;22.30;24.20
34815;DHT22;21030;53.912;15.214;2023-01-25T10:51:04;23.60;23.10
34815;DHT22;21030;53.912;15.214;2023-01-25T10:53:36;23.20;23.40
34815;DHT22;21030;53.912;15.214;2023-01-25T10:56:22;23.30;23.20
34815;DHT22;21030;53.912;15.214;2023-01-25T10:58:51;22.70;23.90
34815;DHT22;21030;53.912;15.214;2023-01-25T11:01:29;22.00;24.30
34815;DHT22;21030;53.912;15.214;2023-01-25T11:03:57;22.30;24.30
34815;DHT22;21030;53.912;15.214;2023-01-25T11:06:36;22.10;24.20
34815;DHT22;21030;53.912;15.214;2023-01-25T11:09:29;21.60;24.90
34815;DHT22;21030;53.912;15.214;2023-01-25T11:11:58;21.20;25.10
34815;DHT22;21030;53.912;15.214;2023-01-25T11:14:28;21.70;25.30
34815;DHT22;21030;53.912;15.214;2023-01-25T11:16:58;20.90;25.70
34815;DHT22;21030;53.912;15.214;2023-01-25T11:19:37;21.70;25.40
34815;DHT22;21030;53.912;15.214;2023-01-25T11:22:21;22.40;24.40
34815;DHT22;21030;53.912;15.214;2023-01-25T11:24:54;23.00;23.90
34815;DHT22;21030;53.912;15.214;2023-01-25T11:27:23;23.10;23.50
34815;DHT22;21030;53.912;15.214;2023-01-25T11:30:13;23.20;23.50
34815;DHT22;21030;53.912;15.214;2023-01-25T11:32:42;23.50;23.10
34815;DHT22;21030;53.912;15.214;2023-01-25T11:35:14;23.50;23.80
34815;DHT22;21030;53.912;15.214;2023-01-25T11:40:39;24.80;22.10
34815;DHT22;21030;53.912;15.214;2023-01-25T11:59:55;23.90;23.10
34815;DHT22;21030;53.912;15.214;2023-01-25T12:03:12;23.40;23.20
34815;DHT22;21030;53.912;15.214;2023-01-25T12:11:25;24.50;23.10
34815;DHT22;21030;53.912;15.214;2023-01-25T12:17:02;25.00;22.30
34815;DHT22;21030;53.912;15.214;2023-01-25T12:27:55;23.20;23.50
34815;DHT22;21030;53.912;15.214;2023-01-25T12:31:07;23.40;23.70
34815;DHT22;21030;53.912;15.214;2023-01-25T12:33:46;22.70;23.40
34815;DHT22;21030;53.912;15.214;2023-01-25T12:39:02;19.40;27.50
34815;DHT22;21030;53.912;15.214;2023-01-25T12:41:57;19.10;27.60
34815;DHT22;21030;53.912;15.214;2023-01-25T12:44:43;20.00;27.30
34815;DHT22;21030;53.912;15.214;2023-01-25T12:49:57;20.40;26.90
34815;DHT22;21030;53.912;15.214;2023-01-25T12:52:35;22.00;25.60
34815;DHT22;21030;53.912;15.214;2023-01-25T12:55:05;22.40;24.90
34815;DHT22;21030;53.912;15.214;2023-01-25T13:11:31;23.80;23.30
34815;DHT22;21030;53.912;15.214;2023-01-25T13:16:52;22.60;24.20
34815;DHT22;21030;53.912;15.214;2023-01-25T13:22:03;21.80;25.50
34815;DHT22;21030;53.912;15.214;2023-01-25T13:24:32;22.30;25.40
34815;DHT22;21030;53.912;15.214;2023-01-25T13:27:09;22.50;25.20
34815;DHT22;21030;53.912;15.214;2023-01-25T13:29:57;23.00;24.50
34815;DHT22;21030;53.912;15.214;2023-01-25T13:37:24;22.70;24.10
34815;DHT22;21030;53.912;15.214;2023-01-25T13:42:33;22.10;25.20
34815;DHT22;21030;53.912;15.214;2023-01-25T13:45:11;22.80;24.60
34815;DHT22;21030;53.912;15.214;2023-01-25T13:47:42;23.10;24.40
34815;DHT22;21030;53.912;15.214;2023-01-25T13:50:24;23.40;23.60
34815;DHT22;21030;53.912;15.214;2023-01-25T13:53:03;24.60;23.00
34815;DHT22;21030;53.912;15.214;2023-01-25T13:55:39;24.30;23.50
34815;DHT22;21030;53.912;15.214;2023-01-25T13:58:26;23.00;23.90
34815;DHT22;21030;53.912;15.214;2023-01-25T14:00:59;22.00;24.70
34815;DHT22;21030;53.912;15.214;2023-01-25T14:03:30;21.50;25.20
34815;DHT22;21030;53.912;15.214;2023-01-25T14:05:59;21.80;25.10
34815;DHT22;21030;53.912;15.214;2023-01-25T14:08:31;22.30;25.00
34815;DHT22;21030;53.912;15.214;2023-01-25T14:10:59;23.10;24.20
34815;DHT22;21030;53.912;15.214;2023-01-25T14:13:26;23.20;24.00
34815;DHT22;21030;53.912;15.214;2023-01-25T14:16:01;23.70;23.60
34815;DHT22;21030;53.912;15.214;2023-01-25T14:18:32;21.50;24.70
34815;DHT22;21030;53.912;15.214;2023-01-25T14:21:20;22.20;25.10
34815;DHT22;21030;53.912;15.214;2023-01-25T14:23:48;23.10;24.10
34815;DHT22;21030;53.912;15.214;2023-01-25T14:26:26;23.80;23.40
34815;DHT22;21030;53.912;15.214;2023-01-25T14:28:56;22.90;23.70
34815;DHT22;21030;53.912;15.214;2023-01-25T14:31:34;21.50;25.00
34815;DHT22;21030;53.912;15.214;2023-01-25T14:34:02;21.30;25.40
34815;DHT22;21030;53.912;15.214;2023-01-25T14:36:32;21.00;26.20
34815;DHT22;21030;53.912;15.214;2023-01-25T14:39:00;21.70;25.60
34815;DHT22;21030;53.912;15.214;2023-01-25T14:41:38;22.10;25.10
34815;DHT22;21030;53.912;15.214;2023-01-25T14:44:25;21.90;24.60
34815;DHT22;21030;53.912;15.214;2023-01-25T14:47:30;20.80;25.80
34815;DHT22;21030;53.912;15.214;2023-01-25T14:50:34;21.50;26.10
34815;DHT22;21030;53.912;15.214;2023-01-25T14:53:18;21.70;25.20
34815;DHT22;21030;53.912;15.214;2023-01-25T14:55:48;21.40;25.70
34815;DHT22;21030;53.912;15.214;2023-01-25T14:58:18;21.70;25.20
34815;DHT22;21030;53.912;15.214;2023-01-25T15:00:52;21.60;25.40
34815;DHT22;21030;53.912;15.214;2023-01-25T15:03:19;22.60;24.80
34815;DHT22;21030;53.912;15.214;2023-01-25T15:05:48;23.10;23.80
34815;DHT22;21030;53.912;15.214;2023-01-25T15:08:29;22.70;24.20
34815;DHT22;21030;53.912;15.214;2023-01-25T15:10:58;22.80;24.30
34815;DHT22;21030;53.912;15.214;2023-01-25T15:13:45;22.10;24.70
34815;DHT22;21030;53.912;15.214;2023-01-25T15:16:13;22.50;24.50
34815;DHT22;21030;53.912;15.214;2023-01-25T15:18:52;23.60;24.10
34815;DHT22;21030;53.912;15.214;2023-01-25T15:21:30;24.60;23.40
34815;DHT22;21030;53.912;15.214;2023-01-25T15:24:00;24.10;22.80
34815;DHT22;21030;53.912;15.214;2023-01-25T15:26:32;22.90;23.90
34815;DHT22;21030;53.912;15.214;2023-01-25T15:29:03;24.10;23.70
34815;DHT22;21030;53.912;15.214;2023-01-25T15:31:32;25.10;22.60
34815;DHT22;21030;53.912;15.214;2023-01-25T15:34:00;25.50;22.00
34815;DHT22;21030;53.912;15.214;2023-01-25T15:36:29;25.80;21.60
34815;DHT22;21030;53.912;15.214;2023-01-25T15:38:57;25.30;21.90
34815;DHT22;21030;53.912;15.214;2023-01-25T15:41:24;24.60;22.40
34815;DHT22;21030;53.912;15.214;2023-01-25T15:43:51;24.30;22.80
34815;DHT22;21030;53.912;15.214;2023-01-25T15:46:24;24.00;23.10
34815;DHT22;21030;53.912;15.214;2023-01-25T15:48:53;24.30;22.90
34815;DHT22;21030;53.912;15.214;2023-01-25T15:51:21;24.00;23.10
34815;DHT22;21030;53.912;15.214;2023-01-25T15:53:49;24.20;23.00
34815;DHT22;21030;53.912;15.214;2023-01-25T15:56:18;23.90;23.20
34815;DHT22;21030;53.912;15.214;2023-01-25T15:58:58;24.10;22.70
34815;DHT22;21030;53.912;15.214;2023-01-25T16:01:27;22.60;23.50
34815;DHT22;21030;53.912;15.214;2023-01-25T16:03:56;21.20;25.20
34815;DHT22;21030;53.912;15.214;2023-01-25T16:09:23;21.30;26.10
34815;DHT22;21030;53.912;15.214;2023-01-25T16:11:55;22.80;25.20
34815;DHT22;21030;53.912;15.214;2023-01-25T16:14:24;22.10;24.70
34815;DHT22;21030;53.912;15.214;2023-01-25T16:17:01;21.60;25.30
34815;DHT22;21030;53.912;15.214;2023-01-25T16:19:30;22.10;25.30
34815;DHT22;21030;53.912;15.214;2023-01-25T16:21:58;22.00;24.80
34815;DHT22;21030;53.912;15.214;2023-01-25T16:24:25;22.20;25.00
34815;DHT22;21030;53.912;15.214;2023-01-25T16:26:54;21.60;25.40
34815;DHT22;21030;53.912;15.214;2023-01-25T16:29:22;22.30;25.10
34815;DHT22;21030;53.912;15.214;2023-01-25T16:31:51;23.20;24.50
34815;DHT22;21030;53.912;15.214;2023-01-25T16:34:19;23.50;23.80
34815;DHT22;21030;53.912;15.214;2023-01-25T16:36:47;23.40;23.50
34815;DHT22;21030;53.912;15.214;2023-01-25T16:39:21;23.10;24.00
34815;DHT22;21030;53.912;15.214;2023-01-25T16:41:48;23.70;23.60
34815;DHT22;21030;53.912;15.214;2023-01-25T16:44:16;23.80;23.40
34815;DHT22;21030;53.912;15.214;2023-01-25T16:46:44;24.10;23.40
34815;DHT22;21030;53.912;15.214;2023-01-25T16:49:21;23.60;23.50
34815;DHT22;21030;53.912;15.214;2023-01-25T16:51:48;23.20;23.80
34815;DHT22;21030;53.912;15.214;2023-01-25T16:54:18;23.50;23.80
34815;DHT22;21030;53.912;15.214;2023-01-25T16:56:46;24.10;23.20
34815;DHT22;21030;53.912;15.214;2023-01-25T16:59:14;24.00;23.40
34815;DHT22;21030;53.912;15.214;2023-01-25T17:01:42;23.80;23.50
34815;DHT22;21030;53.912;15.214;2023-01-25T17:04:09;24.10;23.40
34815;DHT22;21030;53.912;15.214;2023-01-25T17:06:45;24.80;22.80
34815;DHT22;21030;53.912;15.214;2023-01-25T17:09:16;23.30;23.30